Time;durP1;ratioP1;P1;durP2;ratioP2;P2;SDS_P1;SDS_P2;PMS_P1;PMS_P2;Temp;Humidity;BMP_temperature;BMP_pressure;BME280_temperature;BME280_humidity;BME280_pressure;Samples;Min_cycle;Max_cycle;Signal;HPM_P1;HPM_P2
2021/12/18 00:00:19;;;;;;;23.22;11.38;;;;;;;1.72;90.92;99501.44;1735258;82;20997;-57
2021/12/18 00:02:47;;;;;;;56.15;43.25;;;;;;;1.64;91.44;99494.35;1756121;80;20980;-57
2021/12/18 00:05:14;;;;;;;28.00;18.20;;;;;;;1.59;91.05;99492.73;1776116;80;21410;-57
2021/12/18 00:07:41;;;;;;;31.42;19.50;;;;;;;1.74;90.75;99487.89;1748456;80;21507;-57
2021/12/18 00:10:08;;;;;;;32.67;24.20;;;;;;;1.77;90.05;99492.84;1748308;80;20984;-57
2021/12/18 00:12:35;;;;;;;33.00;20.30;;;;;;;1.81;90.24;99488.80;1754427;80;21055;-57
2021/12/18 00:15:03;;;;;;;31.68;20.08;;;;;;;1.84;90.04;99489.75;1744932;81;21434;-57
2021/12/18 00:17:30;;;;;;;30.25;19.07;;;;;;;1.85;90.14;99492.23;1761265;80;21400;-57
2021/12/18 00:19:57;;;;;;;36.15;27.65;;;;;;;1.83;90.00;99502.28;1774395;79;21445;-57
2021/12/18 00:22:24;;;;;;;36.05;24.37;;;;;;;1.85;90.17;99498.09;1750981;81;33286;-57
2021/12/18 00:24:51;;;;;;;42.15;28.23;;;;;;;1.87;90.41;99510.23;1737413;81;20945;-57
2021/12/18 00:27:18;;;;;;;49.10;32.70;;;;;;;1.88;90.28;99526.63;1766411;81;21041;-57
2021/12/18 00:29:45;;;;;;;53.90;30.60;;;;;;;1.88;90.25;99530.64;1751840;81;21246;-57
2021/12/18 00:32:13;;;;;;;38.45;23.95;;;;;;;1.92;89.98;99534.58;1747223;81;20981;-57
2021/12/18 00:34:40;;;;;;;28.15;16.30;;;;;;;1.95;89.77;99530.18;1752179;81;21035;-56
2021/12/18 00:37:07;;;;;;;31.20;19.30;;;;;;;2.01;89.46;99537.14;1744479;81;21005;-57
2021/12/18 00:39:38;;;;;;;42.48;21.42;;;;;;;2.02;89.56;99548.16;1741936;81;21401;-57
2021/12/18 00:44:49;;;;;;;23.87;11.45;;;;;;;1.99;89.07;99541.34;1743510;81;20966;-57
2021/12/18 00:47:17;;;;;;;29.80;13.65;;;;;;;2.04;89.21;99536.76;1742395;82;21064;-57
2021/12/18 00:49:43;;;;;;;21.85;12.47;;;;;;;2.01;89.44;99539.31;1763757;80;20977;-57
2021/12/18 00:52:12;;;;;;;25.57;13.08;;;;;;;2.01;89.20;99537.97;1740046;82;20999;-57
2021/12/18 00:54:38;;;;;;;30.60;13.07;;;;;;;2.02;88.91;99543.64;1774196;79;21414;-57
2021/12/18 00:57:05;;;;;;;29.80;14.10;;;;;;;2.04;89.24;99548.28;1745212;82;20984;-57
2021/12/18 00:59:34;;;;;;;36.05;16.02;;;;;;;1.98;89.08;99557.08;1742635;81;20970;-57
2021/12/18 01:02:01;;;;;;;40.90;19.70;;;;;;;1.99;88.99;99566.75;1764320;81;21056;-57
2021/12/18 01:04:28;;;;;;;29.80;13.15;;;;;;;2.05;88.76;99555.80;1777003;80;20945;-57
2021/12/18 01:06:55;;;;;;;24.30;12.47;;;;;;;2.01;88.88;99565.22;1748670;82;21935;-57
2021/12/18 01:09:32;;;;;;;21.37;11.22;;;;;;;2.00;88.65;99569.73;1776442;80;21437;-57
2021/12/18 01:11:50;;;;;;;25.05;10.68;;;;;;;2.01;88.53;99564.71;1778660;79;21009;-58
2021/12/18 01:25:07;;;;;;;22.30;9.65;;;;;;;2.02;88.83;99564.20;1732111;82;21004;-58
2021/12/18 01:27:35;;;;;;;23.05;9.20;;;;;;;2.00;88.99;99560.89;1732486;82;21465;-57
2021/12/18 01:30:04;;;;;;;19.02;9.00;;;;;;;1.98;89.12;99567.77;1731877;81;21009;-57
2021/12/18 01:32:31;;;;;;;21.52;10.32;;;;;;;2.01;88.91;99575.91;1739289;82;21392;-57
2021/12/18 01:34:58;;;;;;;18.02;9.30;;;;;;;1.88;89.58;99578.75;1734943;82;20966;-58
2021/12/18 01:37:26;;;;;;;18.15;8.38;;;;;;;1.94;89.17;99566.47;1739479;82;21055;-57
2021/12/18 01:39:54;;;;;;;18.80;7.60;;;;;;;2.00;89.23;99551.02;1752454;81;20973;-57
2021/12/18 01:45:14;;;;;;;14.03;7.58;;;;;;;1.96;89.21;99541.19;1758255;80;21396;-57
2021/12/18 01:53:03;;;;;;;19.23;7.30;;;;;;;2.04;89.07;99552.80;1737516;82;21017;-57
2021/12/18 01:55:33;;;;;;;21.07;9.68;;;;;;;2.08;88.71;99552.25;1737327;81;21013;-57
2021/12/18 01:58:00;;;;;;;25.12;11.28;;;;;;;2.00;88.60;99557.70;1737410;82;21755;-58
2021/12/18 02:00:30;;;;;;;26.33;9.18;;;;;;;1.95;88.92;99565.45;1763687;79;21536;-57
2021/12/18 02:02:57;;;;;;;19.17;8.83;;;;;;;2.00;88.69;99570.25;1738468;82;21009;-57
2021/12/18 02:05:24;;;;;;;24.30;12.07;;;;;;;2.01;88.81;99572.73;1734808;82;21005;-57
2021/12/18 02:07:51;;;;;;;22.60;11.20;;;;;;;2.01;88.83;99572.73;1754340;80;20966;-57
2021/12/18 02:10:24;;;;;;;16.40;8.60;;;;;;;2.04;88.89;99592.91;1764050;81;21001;-57
2021/12/18 02:13:10;;;;;;;26.70;10.85;;;;;;;2.05;88.49;99591.41;1739157;82;21458;-58
2021/12/18 02:21:11;;;;;;;14.87;7.40;;;;;;;2.12;88.13;99601.66;1739679;82;21007;-57
2021/12/18 02:23:37;;;;;;;17.92;8.45;;;;;;;2.09;87.99;99602.05;1736995;82;21416;-56
2021/12/18 02:26:04;;;;;;;19.12;7.65;;;;;;;2.04;88.06;99596.41;1734885;82;21020;-57
2021/12/18 02:28:31;;;;;;;19.25;7.78;;;;;;;2.06;88.08;99593.58;1738674;82;20980;-57
2021/12/18 02:30:58;;;;;;;17.62;8.00;;;;;;;2.02;88.16;99592.28;1739481;82;20999;-58
2021/12/18 02:33:25;;;;;;;17.12;7.40;;;;;;;2.09;88.10;99590.52;1739853;82;21451;-58
2021/12/18 02:35:55;;;;;;;16.35;7.35;;;;;;;2.03;87.93;99590.75;1741935;81;21004;-58
2021/12/18 02:38:31;;;;;;;;;;;;;;;2.02;88.09;99587.76;1750638;81;20965;-57
2021/12/18 02:41:11;;;;;;;21.37;9.18;;;;;;;2.01;88.00;99593.30;1741305;82;20154;-57
2021/12/18 02:43:36;;;;;;;14.05;6.58;;;;;;;1.99;88.08;99598.84;1745430;81;21051;-57
2021/12/18 02:46:06;;;;;;;15.15;7.50;;;;;;;2.00;88.10;99588.45;1750752;81;20993;-57
2021/12/18 02:48:40;;;;;;;14.60;7.62;;;;;;;1.97;87.84;99572.80;1738396;80;21001;-57
2021/12/18 02:51:09;;;;;;;14.75;6.75;;;;;;;2.04;87.85;99586.23;1737379;82;20966;-57
2021/12/18 02:53:36;;;;;;;;;;;;;;;2.09;87.80;99582.50;1751462;81;21058;-57
2021/12/18 02:56:05;;;;;;;16.82;8.23;;;;;;;2.10;88.01;99573.45;1750866;80;20158;-57
2021/12/18 02:58:42;;;;;;;13.20;7.75;;;;;;;2.10;87.72;99576.95;1737473;82;21005;-57
2021/12/18 03:01:12;;;;;;;21.20;8.05;;;;;;;2.11;87.44;99573.27;1737298;81;21051;-57
2021/12/18 03:03:41;;;;;;;17.75;7.92;;;;;;;2.09;87.23;99586.52;1737406;82;20974;-57
2021/12/18 03:06:31;;;;;;;14.10;7.37;;;;;;;2.09;87.27;99586.00;1737453;82;24290;-57
2021/12/18 03:09:17;;;;;;;13.83;7.20;;;;;;;2.09;87.32;99578.48;1735736;82;21504;-57
2021/12/18 03:25:09;;;;;;;19.90;8.38;;;;;;;2.06;87.33;99598.42;1737369;82;21594;-57
2021/12/18 03:27:30;;;;;;;21.90;7.75;;;;;;;2.02;87.31;99605.64;1729147;82;21421;-57
2021/12/18 03:29:57;;;;;;;19.90;11.83;;;;;;;1.91;87.46;99607.78;1737358;82;20981;-58
2021/12/18 03:32:24;;;;;;;177.25;63.42;;;;;;;1.83;87.82;99601.70;1756014;80;20995;-57
2021/12/18 03:34:51;;;;;;;97.75;41.42;;;;;;;1.84;88.33;99606.86;1758424;80;21043;-57
2021/12/18 03:37:18;;;;;;;66.60;27.10;;;;;;;1.84;88.48;99612.20;1740297;81;20985;-57
2021/12/18 03:39:46;;;;;;;106.83;47.90;;;;;;;1.82;88.52;99622.26;1758311;81;21235;-57
2021/12/18 03:42:13;;;;;;;217.40;112.68;;;;;;;1.79;88.43;99626.62;1758833;80;21247;-58
2021/12/18 03:44:40;;;;;;;43.85;23.77;;;;;;;1.77;88.65;99624.64;1738586;80;21493;-57
2021/12/18 03:47:07;;;;;;;52.17;21.68;;;;;;;1.86;88.30;99623.53;1764401;81;21434;-57
2021/12/18 03:49:34;;;;;;;87.65;30.90;;;;;;;1.82;88.21;99618.25;1777949;79;21056;-57
2021/12/18 03:52:00;;;;;;;118.87;47.43;;;;;;;1.77;88.47;99617.95;1732679;82;21411;-58
2021/12/18 03:54:27;;;;;;;104.27;44.23;;;;;;;1.81;88.72;99615.77;1751811;80;21106;-57
2021/12/18 03:56:54;;;;;;;95.45;39.70;;;;;;;1.69;89.10;99622.05;1747590;81;21025;-57
2021/12/18 03:59:21;;;;;;;136.12;48.30;;;;;;;1.77;88.94;99629.98;1764023;80;21494;-57
2021/12/18 04:01:48;;;;;;;41.83;15.48;;;;;;;1.72;88.70;99631.57;1774441;80;20985;-57
2021/12/18 04:04:15;;;;;;;91.10;38.35;;;;;;;1.71;88.41;99629.41;1775590;80;21400;-57
2021/12/18 04:06:42;;;;;;;30.52;15.95;;;;;;;1.73;88.48;99622.53;1731113;82;21072;-57
2021/12/18 04:09:11;;;;;;;84.25;32.60;;;;;;;1.77;88.54;99629.16;1750772;81;21425;-57
2021/12/18 04:11:39;;;;;;;26.68;14.93;;;;;;;1.74;88.46;99631.70;1748679;81;21016;-57
2021/12/18 04:14:07;;;;;;;17.07;8.88;;;;;;;1.76;88.40;99632.34;1761542;81;21063;-57
2021/12/18 04:16:34;;;;;;;50.78;21.97;;;;;;;1.76;88.49;99632.34;1755823;80;21344;-57
2021/12/18 04:19:03;;;;;;;40.10;18.73;;;;;;;1.79;88.43;99631.96;1775219;80;21123;-57
2021/12/18 04:21:31;;;;;;;34.05;18.35;;;;;;;1.78;88.52;99632.16;1772416;80;20973;-57
2021/12/18 04:23:59;;;;;;;44.85;20.48;;;;;;;1.81;88.42;99630.47;1755683;80;21397;-57
2021/12/18 04:26:26;;;;;;;29.05;16.45;;;;;;;1.69;88.64;99628.23;1744373;82;21453;-57
2021/12/18 04:28:53;;;;;;;23.57;11.60;;;;;;;1.71;88.78;99634.75;1745619;80;21399;-57
2021/12/18 04:31:20;;;;;;;27.00;10.38;;;;;;;1.64;89.02;99631.15;1771245;79;21020;-57
2021/12/18 04:33:47;;;;;;;16.95;9.88;;;;;;;1.65;88.84;99618.11;1757840;80;21431;-57
2021/12/18 04:36:14;;;;;;;23.02;11.05;;;;;;;1.69;88.88;99618.88;1737304;80;21079;-57
2021/12/18 04:38:41;;;;;;;14.80;8.43;;;;;;;1.68;88.92;99615.88;1764018;81;21001;-58
2021/12/18 04:41:10;;;;;;;18.95;10.15;;;;;;;1.73;89.03;99605.99;1732036;82;21305;-57
2021/12/18 04:43:36;;;;;;;26.60;10.18;;;;;;;1.70;88.97;99600.48;1764440;80;20989;-57
2021/12/18 04:46:03;;;;;;;16.80;8.38;;;;;;;1.74;88.67;99603.64;1764083;79;20998;-57
2021/12/18 04:48:30;;;;;;;32.35;15.25;;;;;;;1.74;88.75;99610.32;1732463;82;21044;-58
2021/12/18 04:50:57;;;;;;;20.68;11.70;;;;;;;1.73;88.48;99607.33;1763973;80;21415;-57
2021/12/18 04:53:24;;;;;;;19.10;7.92;;;;;;;1.77;88.42;99604.59;1764811;80;21437;-57
2021/12/18 04:55:51;;;;;;;20.90;10.85;;;;;;;1.72;88.18;99612.86;1731980;82;21056;-57
2021/12/18 04:58:18;;;;;;;19.40;9.93;;;;;;;1.69;88.03;99618.88;1770052;80;21052;-57
2021/12/18 05:00:47;;;;;;;26.30;13.35;;;;;;;1.67;88.06;99612.06;1769222;79;21000;-57
2021/12/18 05:03:15;;;;;;;26.23;11.95;;;;;;;1.57;88.00;99610.17;1744707;81;21817;-57
2021/12/18 05:05:42;;;;;;;30.30;11.68;;;;;;;1.58;88.12;99616.66;1751875;80;21754;-57
2021/12/18 05:08:09;;;;;;;24.60;10.08;;;;;;;1.61;88.13;99615.45;1747732;82;20976;-57
2021/12/18 05:10:36;;;;;;;17.15;10.78;;;;;;;1.62;88.16;99627.80;1748718;80;20985;-57
2021/12/18 05:13:02;;;;;;;20.12;8.35;;;;;;;1.63;88.07;99625.48;1758504;80;21036;-57
2021/12/18 05:15:30;;;;;;;23.22;9.18;;;;;;;1.57;88.27;99627.03;1767964;79;21053;-57
2021/12/18 05:17:56;;;;;;;23.90;9.83;;;;;;;1.59;88.21;99623.66;1743134;80;21323;-57
2021/12/18 05:20:23;;;;;;;18.25;11.10;;;;;;;1.51;88.59;99622.92;1763887;80;20988;-57
2021/12/18 05:22:50;;;;;;;19.05;10.38;;;;;;;1.48;88.79;99621.45;1735304;80;22029;-57
2021/12/18 05:25:17;;;;;;;15.70;8.45;;;;;;;1.52;88.63;99617.38;1763994;80;21403;-57
2021/12/18 05:27:44;;;;;;;22.62;12.80;;;;;;;1.45;88.61;99617.78;1732316;82;21016;-57
2021/12/18 05:30:12;;;;;;;23.60;11.48;;;;;;;1.45;88.36;99622.30;1763777;80;21301;-57
2021/12/18 05:32:39;;;;;;;17.23;10.45;;;;;;;1.46;88.31;99625.33;1762953;80;21024;-56
2021/12/18 05:35:07;;;;;;;17.12;9.83;;;;;;;1.52;88.32;99620.06;1763075;80;20993;-57
2021/12/18 05:37:47;;;;;;;20.62;11.05;;;;;;;1.54;88.12;99618.06;1746240;81;21530;-57
2021/12/18 05:40:04;;;;;;;23.45;9.55;;;;;;;1.54;88.13;99634.56;1772368;79;21374;-57
2021/12/18 05:42:31;;;;;;;19.75;11.35;;;;;;;1.51;88.41;99631.77;1779197;80;21910;-57
2021/12/18 05:44:58;;;;;;;15.58;7.97;;;;;;;1.55;88.17;99629.57;1747187;82;21031;-57
2021/12/18 05:47:25;;;;;;;14.68;8.28;;;;;;;1.53;88.15;99623.05;1742592;82;21059;-58
2021/12/18 05:49:52;;;;;;;64.35;34.33;;;;;;;1.49;88.16;99628.45;1742046;81;21000;-57
2021/12/18 05:52:19;;;;;;;55.88;31.60;;;;;;;1.58;88.02;99626.02;1764149;80;20980;-57
2021/12/18 05:54:46;;;;;;;21.50;11.05;;;;;;;1.62;88.15;99624.66;1764054;80;21287;-57
2021/12/18 05:57:14;;;;;;;99.30;50.90;;;;;;;1.59;88.05;99626.34;1776663;80;21367;-57
2021/12/18 05:59:42;;;;;;;23.22;11.78;;;;;;;1.63;88.09;99623.64;1779362;79;21044;-57
2021/12/18 06:02:09;;;;;;;19.85;10.03;;;;;;;1.68;87.80;99623.90;1750408;79;21437;-57
2021/12/18 06:04:35;;;;;;;29.70;15.55;;;;;;;1.63;87.78;99629.49;1744515;82;21047;-57
2021/12/18 06:07:05;;;;;;;18.52;10.70;;;;;;;1.65;87.67;99630.95;1765720;81;21012;-57
2021/12/18 06:09:35;;;;;;;21.05;13.98;;;;;;;1.64;87.91;99630.64;1746054;82;20945;-57
2021/12/18 06:12:03;;;;;;;30.27;17.65;;;;;;;1.62;87.91;99637.16;1753272;80;21000;-57
2021/12/18 06:14:30;;;;;;;21.77;10.28;;;;;;;1.64;87.69;99638.66;1745312;81;21998;-57
2021/12/18 06:16:57;;;;;;;24.52;17.20;;;;;;;1.67;87.97;99643.63;1762352;80;21012;-57
2021/12/18 06:19:24;;;;;;;19.27;10.30;;;;;;;1.63;87.67;99646.86;1766825;81;21195;-58
2021/12/18 06:21:51;;;;;;;31.93;18.70;;;;;;;1.63;87.55;99646.86;1702072;81;20967;-57
2021/12/18 06:24:18;;;;;;;66.17;44.98;;;;;;;1.57;87.51;99646.25;1766795;80;21035;-57
2021/12/18 06:26:45;;;;;;;34.10;24.02;;;;;;;1.54;87.56;99650.13;1755691;80;21028;-57
2021/12/18 06:29:12;;;;;;;20.72;11.43;;;;;;;1.51;88.04;99652.30;1745672;82;22016;-57
2021/12/18 06:31:39;;;;;;;27.42;12.13;;;;;;;1.59;87.73;99637.53;1763891;80;21413;-57
2021/12/18 06:34:06;;;;;;;17.70;9.58;;;;;;;1.64;87.56;99639.16;1739718;82;21008;-57
2021/12/18 06:36:33;;;;;;;25.25;15.18;;;;;;;1.62;87.59;99635.34;1739508;82;21476;-57
2021/12/18 06:39:00;;;;;;;49.83;26.37;;;;;;;1.65;87.54;99640.82;1764179;81;21116;-57
2021/12/18 06:41:27;;;;;;;44.35;33.53;;;;;;;1.69;87.58;99644.27;1764113;80;20984;-57
2021/12/18 06:43:54;;;;;;;24.02;12.93;;;;;;;1.73;87.58;99647.42;1773860;79;21414;-57
2021/12/18 06:46:21;;;;;;;23.70;17.02;;;;;;;1.68;87.37;99643.95;1761066;79;21365;-57
2021/12/18 06:48:48;;;;;;;29.82;16.42;;;;;;;1.65;87.32;99648.33;1745769;80;21000;-57
2021/12/18 06:51:19;;;;;;;29.95;17.48;;;;;;;1.65;87.37;99651.51;1764211;81;20997;-57
2021/12/18 06:53:46;;;;;;;28.55;15.40;;;;;;;1.75;87.38;99653.91;1760562;80;21469;-57
2021/12/18 06:56:13;;;;;;;24.52;19.73;;;;;;;1.70;87.16;99658.45;1739713;82;21717;-56
2021/12/18 06:58:40;;;;;;;32.40;21.30;;;;;;;1.57;87.36;99653.75;1770413;79;20981;-57
2021/12/18 07:01:07;;;;;;;39.85;21.87;;;;;;;1.53;87.50;99645.76;1749252;81;21044;-57
2021/12/18 07:03:34;;;;;;;23.57;15.65;;;;;;;1.61;87.60;99651.53;1737590;81;20976;-57
2021/12/18 07:06:01;;;;;;;26.95;18.85;;;;;;;1.58;87.28;99654.58;1766536;78;21001;-57
2021/12/18 07:08:28;;;;;;;50.28;36.88;;;;;;;1.50;87.70;99652.81;1744594;82;22067;-57
2021/12/18 07:10:55;;;;;;;27.80;14.98;;;;;;;1.48;87.74;99654.02;1779165;80;21425;-57
2021/12/18 07:13:22;;;;;;;15.40;9.53;;;;;;;1.55;87.53;99644.27;1763418;80;21043;-57
2021/12/18 07:15:50;;;;;;;29.10;18.12;;;;;;;1.59;87.48;99638.36;1731684;82;21008;-57
2021/12/18 07:18:17;;;;;;;39.95;23.25;;;;;;;1.62;87.41;99635.34;1743189;81;20982;-57
2021/12/18 07:20:44;;;;;;;25.20;12.80;;;;;;;1.63;87.33;99634.84;1764007;81;21393;-58
2021/12/18 07:23:11;;;;;;;271.77;177.10;;;;;;;1.70;87.36;99638.41;1769401;80;21005;-57
2021/12/18 07:25:38;;;;;;;103.67;68.87;;;;;;;1.72;87.17;99645.77;1776666;80;21608;-57
2021/12/18 07:28:05;;;;;;;48.30;30.37;;;;;;;1.73;87.13;99642.08;1742710;82;21073;-57
2021/12/18 07:30:32;;;;;;;64.47;40.35;;;;;;;1.74;87.19;99638.89;1744838;80;21071;-57
2021/12/18 07:32:59;;;;;;;60.60;44.83;;;;;;;1.74;87.20;99636.22;1763961;81;22139;-57
2021/12/18 07:35:26;;;;;;;66.02;38.08;;;;;;;1.75;87.18;99634.69;1763876;81;21430;-57
2021/12/18 07:37:53;;;;;;;111.37;51.13;;;;;;;1.81;87.16;99634.48;1764302;81;21014;-57
2021/12/18 07:40:19;;;;;;;39.58;22.40;;;;;;;1.82;86.88;99632.12;1763873;80;20997;-57
2021/12/18 07:42:46;;;;;;;38.88;22.93;;;;;;;1.84;86.76;99634.92;1766752;80;21040;-57
2021/12/18 07:45:13;;;;;;;74.55;36.50;;;;;;;1.83;86.64;99645.80;1779191;79;21483;-57
2021/12/18 07:47:40;;;;;;;26.97;16.62;;;;;;;1.78;86.53;99641.50;1747787;81;21018;-57
2021/12/18 07:50:12;;;;;;;33.55;15.98;;;;;;;1.77;86.44;99646.02;1758342;80;20997;-57
2021/12/18 07:52:36;;;;;;;28.35;15.03;;;;;;;1.79;86.36;99638.64;1749809;80;20997;-57
2021/12/18 07:55:05;;;;;;;33.70;17.40;;;;;;;1.83;86.45;99639.12;1727311;81;21040;-57
2021/12/18 07:57:32;;;;;;;62.70;30.85;;;;;;;1.81;86.59;99637.98;1727632;80;21912;-57
2021/12/18 07:59:59;;;;;;;33.63;18.17;;;;;;;1.81;86.58;99639.31;1759366;79;21461;-57
2021/12/18 08:02:25;;;;;;;22.30;12.75;;;;;;;1.68;86.50;99635.92;1751411;80;21024;-57
2021/12/18 08:04:52;;;;;;;19.62;12.73;;;;;;;1.73;86.66;99643.41;1764187;81;21060;-57
2021/12/18 08:07:19;;;;;;;17.95;11.38;;;;;;;1.66;87.00;99637.13;1763959;80;21001;-57
2021/12/18 08:09:46;;;;;;;20.82;13.85;;;;;;;1.72;86.77;99638.25;1753315;80;22143;-57
2021/12/18 08:12:13;;;;;;;30.40;17.73;;;;;;;1.68;86.66;99637.27;1739337;81;21527;-57
2021/12/18 08:14:40;;;;;;;25.30;16.85;;;;;;;1.68;86.95;99637.27;1723801;81;22306;-57
2021/12/18 08:17:07;;;;;;;33.25;18.05;;;;;;;1.64;86.97;99645.84;1760482;80;20977;-57
2021/12/18 08:19:34;;;;;;;34.05;24.80;;;;;;;1.68;86.97;99651.13;1762816;80;20979;-57
2021/12/18 08:22:01;;;;;;;23.50;13.05;;;;;;;1.73;87.13;99635.90;1768044;80;21459;-57
2021/12/18 08:24:28;;;;;;;23.47;14.10;;;;;;;1.83;86.87;99633.78;1738217;81;21040;-57
2021/12/18 08:26:55;;;;;;;33.30;25.00;;;;;;;1.92;86.88;99639.35;1739751;82;21013;-57
2021/12/18 08:29:22;;;;;;;35.98;21.95;;;;;;;1.96;86.67;99649.98;1746251;82;20988;-56
2021/12/18 08:31:51;;;;;;;25.82;13.13;;;;;;;2.06;86.90;99645.22;1746236;81;21004;-57
2021/12/18 08:34:20;;;;;;;18.05;11.65;;;;;;;2.09;85.72;99646.67;1742283;82;21403;-57
2021/12/18 08:36:47;;;;;;;20.50;12.37;;;;;;;2.07;84.98;99653.55;1759861;81;21021;-57
2021/12/18 08:39:14;;;;;;;36.08;24.90;;;;;;;2.18;85.29;99654.41;1751040;80;21599;-57
2021/12/18 08:41:42;;;;;;;28.90;13.80;;;;;;;2.06;84.24;99669.28;1741167;82;20989;-57
2021/12/18 08:44:09;;;;;;;30.52;15.68;;;;;;;2.10;84.32;99674.56;1764048;81;20997;-57
2021/12/18 08:46:36;;;;;;;65.92;32.28;;;;;;;1.95;83.16;99673.73;1764028;81;21283;-57
2021/12/18 08:49:03;;;;;;;26.25;13.18;;;;;;;1.92;83.50;99664.24;1764551;80;21112;-57
2021/12/18 08:51:30;;;;;;;37.98;17.20;;;;;;;2.09;84.17;99654.19;1763658;79;21445;-56
2021/12/18 08:53:57;;;;;;;14.75;9.08;;;;;;;2.24;84.26;99653.68;1773971;79;21409;-57
2021/12/18 08:56:24;;;;;;;25.35;15.03;;;;;;;2.40;84.53;99655.83;1760354;80;22125;-57
2021/12/18 08:58:53;;;;;;;36.08;20.27;;;;;;;2.46;83.01;99659.08;1745583;80;21388;-57
2021/12/18 09:01:21;;;;;;;48.80;31.73;;;;;;;2.50;82.45;99665.73;1745030;80;21444;-58
2021/12/18 09:03:48;;;;;;;34.13;21.57;;;;;;;2.61;82.02;99661.73;1772172;80;21571;-57
2021/12/18 09:06:16;;;;;;;25.35;12.90;;;;;;;2.60;80.22;99658.73;1752281;80;21235;-57
2021/12/18 09:08:43;;;;;;;14.13;7.00;;;;;;;2.66;82.04;99652.13;1761135;79;21508;-58
2021/12/18 09:11:10;;;;;;;17.85;9.93;;;;;;;2.79;82.91;99638.86;1779264;79;20997;-57
2021/12/18 09:13:37;;;;;;;18.95;12.13;;;;;;;2.85;80.05;99643.98;1753536;80;20986;-58
2021/12/18 09:16:05;;;;;;;12.45;7.45;;;;;;;2.75;77.35;99644.30;1767716;79;21028;-57
2021/12/18 09:18:32;;;;;;;11.10;6.95;;;;;;;2.85;79.77;99644.49;1779973;80;21044;-58
2021/12/18 09:20:59;;;;;;;16.97;7.30;;;;;;;2.93;81.28;99638.50;1777538;79;20993;-57
2021/12/18 09:23:26;;;;;;;18.77;8.63;;;;;;;3.00;80.72;99635.89;1749771;81;22032;-58
2021/12/18 09:25:53;;;;;;;16.35;10.55;;;;;;;3.05;81.30;99635.62;1752098;80;21413;-57
2021/12/18 09:28:19;;;;;;;15.18;7.03;;;;;;;3.03;76.61;99636.84;1749670;80;21020;-57
2021/12/18 09:30:46;;;;;;;13.75;6.58;;;;;;;3.04;77.35;99629.95;1737281;82;21017;-57
2021/12/18 09:33:16;;;;;;;13.05;6.50;;;;;;;2.96;75.67;99632.75;1737025;80;21421;-57
2021/12/18 09:35:42;;;;;;;12.43;5.70;;;;;;;3.02;77.84;99624.47;1737269;81;22757;-57
2021/12/18 09:38:10;;;;;;;9.58;5.95;;;;;;;3.09;78.42;99619.50;1737020;82;21441;-57
2021/12/18 09:40:37;;;;;;;10.15;5.85;;;;;;;3.14;78.95;99618.91;1740186;81;20991;-58
2021/12/18 09:43:04;;;;;;;17.15;7.25;;;;;;;3.14;78.30;99622.92;1751335;81;21060;-57
2021/12/18 09:45:30;;;;;;;11.30;5.35;;;;;;;3.08;77.13;99617.84;1742925;81;21004;-58
2021/12/18 09:47:57;;;;;;;11.15;5.97;;;;;;;3.23;77.83;99614.23;1743590;81;21354;-58
2021/12/18 09:50:26;;;;;;;14.20;7.12;;;;;;;3.32;78.13;99606.38;1741832;81;21448;-57
2021/12/18 09:52:53;;;;;;;14.70;8.00;;;;;;;3.31;77.31;99610.91;1739320;81;20983;-57
2021/12/18 09:55:20;;;;;;;15.95;7.55;;;;;;;3.31;77.31;99610.91;1739349;81;21734;-57
2021/12/18 09:57:47;;;;;;;13.22;7.00;;;;;;;3.26;76.19;99600.48;1737181;81;20989;-57
2021/12/18 10:00:18;;;;;;;39.38;17.02;;;;;;;3.30;78.01;99595.03;1737018;82;21430;-57
2021/12/18 10:02:45;;;;;;;32.73;14.75;;;;;;;3.34;77.46;99590.44;1765991;80;20993;-58
2021/12/18 10:05:21;;;;;;;20.30;10.18;;;;;;;3.37;77.40;99591.89;1747459;81;21020;-57
2021/12/18 10:08:18;;;;;;;22.42;10.18;;;;;;;3.37;76.94;99599.93;1747813;81;20981;-57
2021/12/18 10:11:02;;;;;;;31.12;14.40;;;;;;;3.27;76.76;99606.15;1743905;81;21438;-57
2021/12/18 10:13:29;;;;;;;25.48;14.43;;;;;;;3.25;77.20;99609.54;1763823;81;21168;-57
2021/12/18 10:16:10;;;;;;;17.02;9.33;;;;;;;3.22;76.84;99605.37;1759891;80;21449;-57
2021/12/18 10:18:37;;;;;;;14.43;8.98;;;;;;;3.17;76.37;99598.96;1739857;81;20987;-57
2021/12/18 10:21:17;;;;;;;20.45;10.43;;;;;;;3.15;76.41;99592.94;1744410;81;21004;-57
2021/12/18 10:23:46;;;;;;;17.35;9.75;;;;;;;3.11;76.03;99596.53;1760620;81;21067;-57
2021/12/18 10:26:38;;;;;;;20.55;11.03;;;;;;;3.08;76.55;99592.40;1738084;82;21994;-57
2021/12/18 10:29:27;;;;;;;17.15;10.48;;;;;;;3.13;77.06;99581.60;1735159;82;21095;-57
2021/12/18 10:31:55;;;;;;;21.35;10.63;;;;;;;3.16;76.98;99586.05;1735138;81;21423;-57
2021/12/18 10:34:26;;;;;;;15.15;8.53;;;;;;;3.14;76.14;99580.06;1739171;82;21457;-57
2021/12/18 10:37:29;;;;;;;18.25;10.05;;;;;;;3.15;76.49;99566.98;1738979;82;20990;-57
2021/12/18 10:40:09;;;;;;;17.90;7.28;;;;;;;3.20;76.79;99561.05;1739928;82;21323;-57
2021/12/18 10:42:42;;;;;;;14.93;7.62;;;;;;;3.30;76.04;99550.31;1739105;82;21056;-57
2021/12/18 10:45:26;;;;;;;15.72;6.92;;;;;;;3.37;75.85;99545.00;1747056;82;21062;-57
2021/12/18 10:48:03;;;;;;;16.40;7.72;;;;;;;3.44;75.80;99548.56;1745802;81;21377;-58
2021/12/18 10:50:38;;;;;;;10.65;6.22;;;;;;;3.49;76.03;99547.44;1740135;81;21626;-57
2021/12/18 10:53:19;;;;;;;12.95;6.83;;;;;;;3.46;75.07;99550.52;1737383;82;21351;-57
2021/12/18 10:55:56;;;;;;;16.55;7.65;;;;;;;3.51;75.60;99548.61;1709192;82;21005;-57
2021/12/18 10:58:29;;;;;;;14.78;7.45;;;;;;;3.39;73.97;99536.25;1751813;81;20956;-57
2021/12/18 11:01:03;;;;;;;15.98;7.08;;;;;;;3.43;74.97;99540.20;1741752;81;20989;-57
2021/12/18 11:03:44;;;;;;;18.50;7.58;;;;;;;3.21;73.59;99546.13;1727368;81;21030;-57
2021/12/18 11:06:23;;;;;;;15.00;6.72;;;;;;;3.26;74.04;99542.88;1752284;80;21013;-57
2021/12/18 11:09:11;;;;;;;13.93;5.75;;;;;;;3.27;74.59;99541.33;1717869;82;21013;-57
2021/12/18 11:14:39;;;;;;;15.13;8.90;;;;;;;3.21;74.79;99533.24;1727640;80;21415;-57
2021/12/18 11:17:10;;;;;;;36.30;18.85;;;;;;;3.25;73.90;99535.86;1728443;82;20985;-57
2021/12/18 11:19:39;;;;;;;16.48;8.38;;;;;;;3.29;74.97;99536.59;1737650;82;21024;-57
2021/12/18 11:22:10;;;;;;;22.32;11.18;;;;;;;3.27;75.14;99533.80;1737774;82;21020;-57
2021/12/18 11:24:41;;;;;;;17.80;8.43;;;;;;;3.18;74.02;99526.44;1774529;79;21009;-57
2021/12/18 11:27:14;;;;;;;29.72;15.72;;;;;;;3.23;75.35;99523.98;1743419;82;20989;-57
2021/12/18 11:30:00;;;;;;;129.25;55.33;;;;;;;3.25;74.89;99528.65;1752158;81;21046;-57
2021/12/18 11:32:31;;;;;;;177.45;72.60;;;;;;;3.20;75.08;99527.06;1743252;81;21492;-57
2021/12/18 11:35:03;;;;;;;72.32;33.15;;;;;;;3.17;74.92;99519.94;1752531;81;20995;-57
2021/12/18 11:37:43;;;;;;;95.97;42.67;;;;;;;3.08;75.08;99513.90;1739863;81;21056;-57
2021/12/18 11:40:14;;;;;;;41.25;19.67;;;;;;;3.10;75.73;99507.31;1764038;81;21005;-57
2021/12/18 11:42:42;;;;;;;102.72;41.50;;;;;;;3.13;75.45;99508.77;1754816;80;20972;-56
2021/12/18 11:45:09;;;;;;;73.07;33.80;;;;;;;3.09;75.44;99501.64;1753794;80;21570;-57
2021/12/18 11:47:38;;;;;;;93.85;39.55;;;;;;;3.06;75.26;99498.00;1761839;80;21511;-57
2021/12/18 11:50:27;;;;;;;42.45;20.80;;;;;;;3.02;75.67;99499.94;1745710;82;21289;-57
2021/12/18 11:53:13;;;;;;;24.55;12.45;;;;;;;3.04;75.64;99494.70;1769436;80;21064;-56
2021/12/18 11:55:54;;;;;;;25.37;12.05;;;;;;;3.04;75.62;99485.83;1747536;81;21008;-57
2021/12/18 11:58:27;;;;;;;19.17;10.80;;;;;;;3.09;75.90;99488.25;1762939;80;21403;-57
2021/12/18 12:01:04;;;;;;;49.55;23.83;;;;;;;3.13;76.22;99486.52;1761105;80;20987;-57
2021/12/18 12:03:53;;;;;;;35.70;16.77;;;;;;;3.15;75.57;99487.13;1765242;80;20972;-57
2021/12/18 12:06:30;;;;;;;23.95;11.18;;;;;;;3.14;75.54;99488.16;1740145;82;21468;-57
2021/12/18 12:09:26;;;;;;;24.72;12.43;;;;;;;3.22;75.31;99481.31;1765084;80;20992;-57
2021/12/18 12:12:05;;;;;;;24.15;12.40;;;;;;;3.32;76.00;99481.27;1733505;82;21009;-56
2021/12/18 12:14:33;;;;;;;25.75;14.75;;;;;;;3.42;75.92;99484.95;1738204;82;21037;-57
2021/12/18 12:17:04;;;;;;;27.70;14.00;;;;;;;3.53;76.07;99474.18;1740328;81;21445;-57
2021/12/18 12:19:41;;;;;;;37.25;17.23;;;;;;;3.61;76.15;99475.35;1744606;81;20996;-57